createdAt,value
2022-11-28T00:01:31.358Z,101217.30
2022-11-28T00:03:58.449Z,101218.55
2022-11-28T00:06:26.858Z,101215.23
2022-11-28T00:08:54.259Z,101213.63
2022-11-28T00:11:21.489Z,101206.29
2022-11-28T00:13:48.743Z,101204.63
2022-11-28T00:16:21.613Z,101206.66
2022-11-28T00:18:50.518Z,101207.13
2022-11-28T00:21:17.973Z,101204.76
2022-11-28T00:23:46.283Z,101202.13
2022-11-28T00:26:28.482Z,101201.30
2022-11-28T00:28:57.346Z,101199.59
2022-11-28T00:31:27.099Z,101200.66
2022-11-28T00:33:54.702Z,101197.64
2022-11-28T00:36:23.046Z,101198.09
2022-11-28T00:38:51.198Z,101200.05
2022-11-28T00:41:29.722Z,101201.61
2022-11-28T00:43:57.351Z,101199.46
2022-11-28T00:46:25.424Z,101197.05
2022-11-28T00:48:53.908Z,101200.02
2022-11-28T00:51:24.229Z,101199.97
2022-11-28T00:53:53.838Z,101203.42
2022-11-28T00:56:26.856Z,101199.77
2022-11-28T00:58:54.181Z,101196.69
2022-11-28T01:01:29.127Z,101194.40
2022-11-28T01:03:58.515Z,101194.59
2022-11-28T01:06:30.146Z,101192.15
2022-11-28T01:08:59.577Z,101195.78
2022-11-28T01:11:27.648Z,101192.39
2022-11-28T01:13:56.438Z,101190.23
2022-11-28T01:16:23.947Z,101189.27
2022-11-28T01:18:51.585Z,101189.19
2022-11-28T01:21:19.584Z,101182.67
2022-11-28T01:23:46.961Z,101178.31
2022-11-28T01:26:20.408Z,101180.27
2022-11-28T01:28:47.928Z,101178.73
2022-11-28T01:31:18.316Z,101173.04
2022-11-28T01:33:45.710Z,101167.91
2022-11-28T01:36:13.953Z,101163.73
2022-11-28T01:38:41.878Z,101161.99
2022-11-28T01:41:09.892Z,101157.98
2022-11-28T01:43:37.860Z,101157.69
2022-11-28T01:46:05.673Z,101158.95
2022-11-28T01:48:40.226Z,101155.32
2022-11-28T01:51:10.046Z,101152.73
2022-11-28T01:53:41.873Z,101151.33
2022-11-28T01:56:23.359Z,101147.17
2022-11-28T01:58:54.662Z,101143.73
2022-11-28T02:01:24.565Z,101143.09
2022-11-28T02:03:53.542Z,101143.11
2022-11-28T02:06:23.380Z,101142.27
2022-11-28T02:08:52.607Z,101140.73
2022-11-28T02:11:57.056Z,101134.98
2022-11-28T02:14:30.990Z,101133.70
2022-11-28T02:17:11.914Z,101129.20
2022-11-28T02:19:44.618Z,101131.26
2022-11-28T02:22:33.455Z,101129.79
2022-11-28T02:25:19.384Z,101129.15
2022-11-28T02:28:02.161Z,101127.09
2022-11-28T02:30:54.193Z,101125.11
2022-11-28T02:33:32.224Z,101124.95
2022-11-28T02:36:05.775Z,101122.91
2022-11-28T02:38:41.911Z,101123.17
2022-11-28T02:41:20.788Z,101120.59
2022-11-28T02:44:24.343Z,101112.59
2022-11-28T02:47:02.933Z,101116.37
2022-11-28T02:49:36.331Z,101113.77
2022-11-28T02:52:19.049Z,101114.70
2022-11-28T02:54:48.120Z,101119.23
2022-11-28T02:57:15.191Z,101118.45
2022-11-28T02:59:42.291Z,101120.30
2022-11-28T03:02:15.680Z,101120.64
2022-11-28T03:05:10.896Z,101115.86
2022-11-28T03:07:59.369Z,101111.27
2022-11-28T03:10:53.942Z,101111.73
2022-11-28T03:13:57.649Z,101107.61
2022-11-28T03:16:30.467Z,101107.19
2022-11-28T03:19:07.746Z,101103.34
2022-11-28T03:21:42.937Z,101110.80
2022-11-28T03:24:31.588Z,101108.15
2022-11-28T03:27:11.874Z,101112.38
2022-11-28T03:29:50.261Z,101109.95
2022-11-28T03:32:23.457Z,101108.91
2022-11-28T03:34:57.569Z,101110.09
2022-11-28T03:37:29.664Z,101107.68
2022-11-28T03:40:07.331Z,101106.58
2022-11-28T03:42:42.649Z,101101.92
2022-11-28T03:45:16.611Z,101103.23
2022-11-28T03:47:47.906Z,101102.20
2022-11-28T03:50:24.841Z,101097.02
2022-11-28T03:53:08.654Z,101098.23
2022-11-28T03:55:44.212Z,101094.77
2022-11-28T03:58:25.304Z,101087.10
2022-11-28T04:01:17.478Z,101086.16
2022-11-28T04:03:57.467Z,101089.87
2022-11-28T04:06:43.613Z,101089.95
2022-11-28T04:09:16.984Z,101090.35
2022-11-28T04:11:49.781Z,101092.35
2022-11-28T04:14:25.826Z,101088.36
2022-11-28T04:16:59.440Z,101082.36
2022-11-28T04:19:39.430Z,101083.95
2022-11-28T04:22:28.401Z,101082.95
2022-11-28T04:25:00.509Z,101075.24
2022-11-28T04:27:34.720Z,101075.33
2022-11-28T04:30:04.616Z,101075.49
2022-11-28T04:32:36.199Z,101074.30
2022-11-28T04:35:11.260Z,101074.52
2022-11-28T04:37:41.070Z,101069.53
2022-11-28T04:40:11.907Z,101069.02
2022-11-28T04:42:53.938Z,101069.13
2022-11-28T04:45:30.065Z,101069.56
2022-11-28T04:47:57.882Z,101071.48
2022-11-28T04:50:31.357Z,101077.48
2022-11-28T04:53:08.106Z,101076.15
2022-11-28T04:55:50.159Z,101071.92
2022-11-28T04:58:34.513Z,101070.73
2022-11-28T05:01:05.004Z,101072.98
2022-11-28T05:03:33.009Z,101075.85
2022-11-28T05:06:01.774Z,101075.58
2022-11-28T05:08:29.054Z,101076.52
2022-11-28T05:10:56.151Z,101079.27
2022-11-28T05:13:23.224Z,101077.38
2022-11-28T05:15:50.247Z,101075.46
2022-11-28T05:18:17.296Z,101075.17
2022-11-28T05:20:44.643Z,101069.33
2022-11-28T05:23:11.726Z,101066.54
2022-11-28T05:25:40.054Z,101064.05
2022-11-28T05:28:08.152Z,101064.49
2022-11-28T05:30:35.213Z,101063.40
2022-11-28T05:33:02.949Z,101064.70
2022-11-28T05:35:29.993Z,101060.77
2022-11-28T05:37:57.091Z,101062.59
2022-11-28T05:40:24.186Z,101063.71
2022-11-28T05:42:51.183Z,101061.41
2022-11-28T05:45:18.384Z,101063.98
2022-11-28T05:47:45.431Z,101061.71
2022-11-28T05:50:12.481Z,101063.21
2022-11-28T05:52:39.450Z,101059.38
2022-11-28T05:55:07.098Z,101056.45
2022-11-28T05:57:34.318Z,101055.86
2022-11-28T06:00:01.352Z,101060.52
2022-11-28T06:02:38.899Z,101055.86
2022-11-28T06:05:27.291Z,101053.52
2022-11-28T06:07:53.777Z,101053.58
2022-11-28T06:10:22.632Z,101055.48
2022-11-28T06:12:51.038Z,101059.08
2022-11-28T06:15:18.194Z,101058.41
2022-11-28T06:17:45.261Z,101061.45
2022-11-28T06:20:12.490Z,101061.66
2022-11-28T06:22:39.569Z,101059.48
2022-11-28T06:25:06.741Z,101064.61
2022-11-28T06:27:35.349Z,101066.90
2022-11-28T06:30:02.401Z,101067.67
2022-11-28T06:32:29.525Z,101065.20
2022-11-28T06:34:56.595Z,101065.64
2022-11-28T06:37:23.566Z,101068.95
2022-11-28T06:39:51.434Z,101069.59
2022-11-28T06:42:18.533Z,101070.72
2022-11-28T06:44:45.587Z,101073.41
2022-11-28T06:47:12.608Z,101070.87
2022-11-28T06:49:39.692Z,101071.27
2022-11-28T06:52:06.932Z,101070.94
2022-11-28T06:54:34.005Z,101069.86
2022-11-28T06:57:00.925Z,101068.43
2022-11-28T06:59:27.989Z,101073.77
2022-11-28T07:01:57.729Z,101073.59
2022-11-28T07:04:24.737Z,101073.09
2022-11-28T07:06:51.707Z,101072.94
2022-11-28T07:09:18.704Z,101068.08
2022-11-28T07:11:46.311Z,101065.84
2022-11-28T07:14:13.618Z,101061.70
2022-11-28T07:16:40.792Z,101065.25
2022-11-28T07:19:07.790Z,101061.93
2022-11-28T07:21:34.804Z,101063.13
2022-11-28T07:24:01.876Z,101066.48
2022-11-28T07:26:29.138Z,101066.70
2022-11-28T07:28:58.415Z,101064.33
2022-11-28T07:31:29.365Z,101064.12
2022-11-28T07:33:56.451Z,101062.69
2022-11-28T07:36:26.008Z,101067.51
2022-11-28T07:38:59.151Z,101068.46
2022-11-28T07:41:27.436Z,101069.67
2022-11-28T07:43:57.428Z,101068.30
2022-11-28T07:46:25.953Z,101069.37
2022-11-28T07:48:53.410Z,101070.54
2022-11-28T07:51:23.249Z,101068.84
2022-11-28T07:53:50.886Z,101068.96
2022-11-28T07:56:20.968Z,101069.70
2022-11-28T07:58:48.593Z,101068.09
2022-11-28T08:01:24.804Z,101064.92
2022-11-28T08:03:53.056Z,101066.77
2022-11-28T08:06:23.559Z,101067.31
2022-11-28T08:08:51.889Z,101065.77
2022-11-28T08:11:21.062Z,101066.38
2022-11-28T08:13:49.082Z,101063.96
2022-11-28T08:16:24.380Z,101064.36
2022-11-28T08:18:52.551Z,101067.09
2022-11-28T08:21:29.068Z,101060.46
2022-11-28T08:23:59.931Z,101060.68
2022-11-28T08:26:30.512Z,101062.34
2022-11-28T08:28:59.404Z,101063.73
2022-11-28T08:31:32.364Z,101063.34
2022-11-28T08:34:01.947Z,101063.41
2022-11-28T08:36:29.506Z,101063.44
2022-11-28T08:41:46.364Z,101061.55
2022-11-28T08:44:13.566Z,101060.35
2022-11-28T08:46:40.666Z,101060.14
2022-11-28T08:49:07.920Z,101056.14
2022-11-28T08:51:34.989Z,101056.90
2022-11-28T08:54:01.987Z,101052.24
2022-11-28T08:56:29.248Z,101051.66
2022-11-28T08:58:56.391Z,101048.70
2022-11-28T09:01:26.096Z,101047.60
2022-11-28T09:03:55.349Z,101046.66
2022-11-28T09:06:23.634Z,101050.91
2022-11-28T09:08:51.780Z,101048.13
2022-11-28T09:11:20.848Z,101044.61
2022-11-28T09:13:48.486Z,101041.81
2022-11-28T09:16:16.130Z,101039.80
2022-11-28T09:18:43.688Z,101036.55
2022-11-28T09:21:13.469Z,101034.37
2022-11-28T09:23:42.566Z,101030.55
2022-11-28T09:26:16.993Z,101029.10
2022-11-28T09:28:44.156Z,101029.27
2022-11-28T09:31:15.155Z,101024.33
2022-11-28T09:33:42.854Z,101023.49
2022-11-28T09:36:15.805Z,101022.93
2022-11-28T09:38:42.999Z,101020.65
2022-11-28T09:41:28.288Z,101021.55
2022-11-28T09:44:43.126Z,101021.83
2022-11-28T09:47:23.204Z,101018.98
2022-11-28T09:49:59.723Z,101024.65
2022-11-28T09:52:34.276Z,101020.23
2022-11-28T09:55:11.130Z,101016.67
2022-11-28T09:57:46.898Z,101015.18
2022-11-28T10:00:29.195Z,101013.42
2022-11-28T10:03:15.124Z,101012.63
2022-11-28T10:05:50.981Z,101005.42
2022-11-28T10:08:50.515Z,101004.75
2022-11-28T10:11:36.328Z,101001.56
2022-11-28T10:14:30.615Z,100997.88
2022-11-28T10:17:07.966Z,100996.10
2022-11-28T10:19:58.238Z,100993.52
2022-11-28T10:23:00.904Z,100988.60
2022-11-28T10:25:35.735Z,100989.14
2022-11-28T10:28:07.010Z,100987.70
2022-11-28T10:30:41.222Z,100984.02
2022-11-28T10:33:25.424Z,100984.42
2022-11-28T10:35:57.645Z,100986.86
2022-11-28T10:38:27.866Z,100988.04
2022-11-28T10:41:17.250Z,100985.91
2022-11-28T10:43:53.683Z,100988.86
2022-11-28T10:46:27.992Z,100983.89
2022-11-28T10:49:04.752Z,100981.19
2022-11-28T10:51:43.651Z,100980.90
2022-11-28T10:54:50.972Z,100979.20
2022-11-28T10:57:24.163Z,100974.52
2022-11-28T11:00:12.439Z,100977.20
2022-11-28T11:02:48.850Z,100972.89
2022-11-28T11:05:19.097Z,100973.95
2022-11-28T11:07:53.378Z,100975.52
2022-11-28T11:10:26.895Z,100974.20
2022-11-28T11:12:54.144Z,100971.50
2022-11-28T11:15:33.843Z,100973.09
2022-11-28T11:18:06.133Z,100972.13
2022-11-28T11:20:38.200Z,100974.52
2022-11-28T11:23:20.660Z,100974.00
2022-11-28T11:25:52.086Z,100974.93
2022-11-28T11:28:42.362Z,100978.33
2022-11-28T11:31:21.697Z,100980.73
2022-11-28T11:33:53.243Z,100978.03
2022-11-28T11:36:27.948Z,100977.78
2022-11-28T11:39:10.848Z,100978.30
2022-11-28T11:41:43.753Z,100975.95
2022-11-28T11:44:22.755Z,100976.53
2022-11-28T11:46:52.950Z,100976.48
2022-11-28T11:49:35.360Z,100978.19
2022-11-28T11:52:06.457Z,100978.92
2022-11-28T11:54:33.628Z,100982.05
2022-11-28T11:57:30.655Z,100978.90
2022-11-28T11:59:57.832Z,100982.30
2022-11-28T12:02:49.393Z,100982.39
2022-11-28T12:06:13.275Z,100981.90
2022-11-28T12:08:50.625Z,100985.45
2022-11-28T12:11:24.380Z,100982.92
2022-11-28T12:13:52.183Z,100982.88
2022-11-28T12:16:25.351Z,100979.70
2022-11-28T12:19:19.574Z,100974.86
2022-11-28T12:22:21.107Z,100970.77
2022-11-28T12:25:13.422Z,100973.21
2022-11-28T12:27:59.745Z,100972.13
2022-11-28T12:30:56.584Z,100968.17
2022-11-28T12:33:47.983Z,100962.94
2022-11-28T12:36:21.104Z,100959.41
2022-11-28T12:39:36.692Z,100953.72
2022-11-28T12:42:05.708Z,100958.00
2022-11-28T12:44:35.855Z,100951.50
2022-11-28T12:47:13.106Z,100951.09
2022-11-28T12:50:03.387Z,100950.50
2022-11-28T12:52:48.741Z,100947.27
2022-11-28T12:55:35.678Z,100945.73
2022-11-28T12:58:17.548Z,100946.17
2022-11-28T13:00:53.172Z,100944.94
2022-11-28T13:03:41.089Z,100942.02
2022-11-28T13:06:20.421Z,100939.81
2022-11-28T13:09:15.399Z,100941.40
2022-11-28T13:12:07.970Z,100939.81
2022-11-28T13:14:46.773Z,100942.29
2022-11-28T13:17:13.922Z,100939.21
2022-11-28T13:20:15.630Z,100939.42
2022-11-28T13:22:54.786Z,100938.46
2022-11-28T13:25:44.033Z,100936.96
2022-11-28T13:28:28.487Z,100933.56
2022-11-28T13:31:03.676Z,100933.39
2022-11-28T13:33:54.311Z,100933.87
2022-11-28T13:39:28.976Z,100929.54
2022-11-28T13:42:44.360Z,100928.27
2022-11-28T13:45:26.585Z,100935.68
2022-11-28T13:47:58.473Z,100932.98
2022-11-28T13:50:28.553Z,100935.09
2022-11-28T13:53:06.170Z,100935.98
2022-11-28T13:55:36.436Z,100935.08
2022-11-28T13:58:28.706Z,100938.01
2022-11-28T14:01:04.919Z,100932.27
2022-11-28T14:03:36.604Z,100929.79
2022-11-28T14:06:07.639Z,100923.46
2022-11-28T14:08:42.086Z,100924.31
2022-11-28T14:11:27.950Z,100919.56
2022-11-28T14:14:14.187Z,100915.83
2022-11-28T14:17:10.405Z,100914.74
2022-11-28T14:20:02.694Z,100917.14
2022-11-28T14:23:08.305Z,100919.45
2022-11-28T14:25:44.637Z,100913.96
2022-11-28T14:28:36.813Z,100913.52
2022-11-28T14:31:10.147Z,100913.84
2022-11-28T14:33:45.845Z,100911.00
2022-11-28T14:36:34.271Z,100911.91
2022-11-28T14:39:16.909Z,100913.33
2022-11-28T14:42:08.235Z,100912.25
2022-11-28T14:44:56.061Z,100918.31
2022-11-28T14:47:43.182Z,100915.56
2022-11-28T14:50:10.619Z,100917.11
2022-11-28T14:52:48.873Z,100915.91
2022-11-28T14:55:21.990Z,100914.96
2022-11-28T14:57:57.411Z,100919.39
2022-11-28T15:00:25.996Z,100923.16
2022-11-28T15:03:34.604Z,100922.08
2022-11-28T15:06:11.469Z,100925.99
2022-11-28T15:09:04.557Z,100927.50
2022-11-28T15:12:11.847Z,100920.39
2022-11-28T15:14:40.581Z,100916.64
2022-11-28T15:17:13.238Z,100919.04
2022-11-28T15:19:46.531Z,100918.10
2022-11-28T15:22:38.171Z,100915.77
2022-11-28T15:25:18.619Z,100917.40
2022-11-28T15:27:45.896Z,100919.17
2022-11-28T15:30:19.603Z,100919.48
2022-11-28T15:32:47.467Z,100919.89
2022-11-28T15:35:18.512Z,100925.14
2022-11-28T15:37:54.472Z,100926.40
2022-11-28T15:40:30.912Z,100924.04
2022-11-28T15:42:59.830Z,100923.59
2022-11-28T15:45:30.065Z,100924.65
2022-11-28T15:47:57.767Z,100927.20
2022-11-28T15:50:28.959Z,100927.71
2022-11-28T15:53:04.920Z,100926.40
2022-11-28T15:55:33.948Z,100927.98
2022-11-28T15:58:30.301Z,100928.68
2022-11-28T16:01:24.833Z,100928.35
2022-11-28T16:03:54.959Z,100928.15
2022-11-28T16:06:26.563Z,100928.73
2022-11-28T16:08:58.150Z,100928.39
2022-11-28T16:11:30.723Z,100928.78
2022-11-28T16:13:59.791Z,100928.26
2022-11-28T16:16:31.602Z,100927.63
2022-11-28T16:19:08.557Z,100928.69
2022-11-28T16:21:46.308Z,100932.86
2022-11-28T16:24:43.173Z,100934.59
2022-11-28T16:27:30.328Z,100935.08
2022-11-28T16:29:57.627Z,100935.33
2022-11-28T16:32:39.657Z,100935.98
2022-11-28T16:35:12.491Z,100938.04
2022-11-28T16:37:39.953Z,100938.74
2022-11-28T16:40:15.381Z,100937.55
2022-11-28T16:42:43.206Z,100928.62
2022-11-28T16:45:16.810Z,100928.65
2022-11-28T16:47:45.806Z,100925.61
2022-11-28T16:50:21.197Z,100930.14
2022-11-28T16:52:50.444Z,100929.15
2022-11-28T16:55:33.799Z,100934.87
2022-11-28T16:58:19.689Z,100934.22
2022-11-28T17:00:56.686Z,100936.91
2022-11-28T17:03:44.044Z,100941.20
2022-11-28T17:06:36.963Z,100942.07
2022-11-28T17:09:09.225Z,100942.70
2022-11-28T17:11:38.829Z,100944.27
2022-11-28T17:14:11.735Z,100938.81
2022-11-28T17:16:41.514Z,100941.01
2022-11-28T17:19:08.935Z,100944.15
2022-11-28T17:21:47.091Z,100939.73
2022-11-28T17:24:18.576Z,100940.52
2022-11-28T17:26:45.873Z,100940.31
2022-11-28T17:29:17.503Z,100935.66
2022-11-28T17:31:47.349Z,100932.10
2022-11-28T17:34:26.089Z,100932.38
2022-11-28T17:36:53.574Z,100932.25
2022-11-28T17:39:20.754Z,100927.38
2022-11-28T17:41:48.718Z,100928.11
2022-11-28T17:44:16.156Z,100923.86
2022-11-28T17:46:43.251Z,100924.12
2022-11-28T17:49:10.554Z,100925.42
2022-11-28T17:51:38.193Z,100924.65
2022-11-28T17:54:05.572Z,100931.61
2022-11-28T17:56:33.362Z,100929.02
2022-11-28T17:59:01.511Z,100926.39
2022-11-28T18:01:30.290Z,100928.77
2022-11-28T18:04:00.522Z,100927.82
2022-11-28T18:06:27.701Z,100927.02
2022-11-28T18:08:54.773Z,100927.59
2022-11-28T18:11:22.613Z,100925.89
2022-11-28T18:13:49.739Z,100921.80
2022-11-28T18:16:20.012Z,100922.11
2022-11-28T18:18:47.777Z,100923.52
2022-11-28T18:21:16.031Z,100927.48
2022-11-28T18:23:46.798Z,100922.55
2022-11-28T18:26:15.655Z,100922.20
2022-11-28T18:28:43.182Z,100921.86
2022-11-28T18:31:12.850Z,100931.08
2022-11-28T18:33:40.538Z,100930.69
2022-11-28T18:36:15.218Z,100937.86
2022-11-28T18:38:45.361Z,100937.73
2022-11-28T18:41:15.019Z,100934.56
2022-11-28T18:43:42.736Z,100931.52
2022-11-28T18:46:13.333Z,100931.57
2022-11-28T18:48:43.909Z,100929.63
2022-11-28T18:51:19.673Z,100924.50
2022-11-28T18:53:48.287Z,100924.44
2022-11-28T18:56:16.586Z,100924.74
2022-11-28T18:58:47.486Z,100925.46
2022-11-28T19:01:22.192Z,100928.95
2022-11-28T19:03:56.828Z,100932.11
2022-11-28T19:06:24.004Z,100931.64
2022-11-28T19:08:59.860Z,100928.98
2022-11-28T19:11:28.724Z,100930.38
2022-11-28T19:13:57.717Z,100933.11
2022-11-28T19:16:30.811Z,100936.13
2022-11-28T19:18:59.239Z,100932.71
2022-11-28T19:21:28.797Z,100934.38
2022-11-28T19:23:56.431Z,100936.70
2022-11-28T19:26:26.350Z,100938.34
2022-11-28T19:28:54.011Z,100939.97
2022-11-28T19:31:27.322Z,100940.46
2022-11-28T19:34:02.196Z,100939.23
2022-11-28T19:36:34.033Z,100943.92
2022-11-28T19:39:02.384Z,100940.20
2022-11-28T19:41:30.223Z,100935.94
2022-11-28T19:43:57.574Z,100935.34
2022-11-28T19:46:26.384Z,100935.50
2022-11-28T19:48:57.763Z,100936.91
2022-11-28T19:51:24.940Z,100941.11
2022-11-28T19:53:52.551Z,100937.95
2022-11-28T19:56:22.720Z,100942.71
2022-11-28T19:58:50.064Z,100940.56
2022-11-28T20:01:23.280Z,100942.45
2022-11-28T20:03:52.314Z,100942.79
2022-11-28T20:06:26.174Z,100943.10
2022-11-28T20:08:55.373Z,100945.20
2022-11-28T20:11:30.586Z,100946.38
2022-11-28T20:14:05.074Z,100941.84
2022-11-28T20:16:33.820Z,100943.37
2022-11-28T20:19:01.973Z,100940.48
2022-11-28T20:21:30.248Z,100941.60
2022-11-28T20:24:04.362Z,100939.94
2022-11-28T20:26:40.705Z,100944.30
2022-11-28T20:29:10.872Z,100943.77
2022-11-28T20:31:45.973Z,100942.52
2022-11-28T20:34:17.068Z,100945.86
2022-11-28T20:36:46.127Z,100947.39
2022-11-28T20:39:13.606Z,100948.56
2022-11-28T20:41:40.683Z,100947.71
2022-11-28T20:44:08.429Z,100944.52
2022-11-28T20:46:35.884Z,100945.34
2022-11-28T20:49:05.949Z,100941.14
2022-11-28T20:51:34.592Z,100939.64
2022-11-28T20:54:02.346Z,100942.77
2022-11-28T20:56:31.962Z,100939.59
2022-11-28T20:59:00.850Z,100944.08
2022-11-28T21:01:33.438Z,100944.64
2022-11-28T21:04:03.032Z,100941.35
2022-11-28T21:06:30.408Z,100943.88
2022-11-28T21:08:57.819Z,100938.83
2022-11-28T21:11:55.148Z,100944.16
2022-11-28T21:14:15.271Z,100945.38
2022-11-28T21:16:42.359Z,100947.33
2022-11-28T21:19:09.848Z,100949.74
2022-11-28T21:21:39.812Z,100953.88
2022-11-28T21:24:13.756Z,100953.61
2022-11-28T21:26:45.349Z,100951.21
2022-11-28T21:29:16.983Z,100949.18
2022-11-28T21:31:45.118Z,100948.71
2022-11-28T21:34:16.861Z,100951.19
2022-11-28T21:36:44.453Z,100949.89
2022-11-28T21:39:17.165Z,100949.59
2022-11-28T21:41:44.769Z,100946.55
2022-11-28T21:44:11.907Z,100948.74
2022-11-28T21:46:39.042Z,100945.91
2022-11-28T21:49:06.344Z,100948.21
2022-11-28T21:51:36.596Z,100942.45
2022-11-28T21:54:03.764Z,100943.53
2022-11-28T21:56:31.190Z,100938.58
2022-11-28T21:58:58.584Z,100942.20
2022-11-28T22:01:25.932Z,100943.62
2022-11-28T22:03:54.433Z,100947.76
2022-11-28T22:06:26.131Z,100952.35
2022-11-28T22:08:54.664Z,100946.39
2022-11-28T22:11:23.043Z,100947.02
2022-11-28T22:13:51.271Z,100949.33
2022-11-28T22:16:28.914Z,100946.48
2022-11-28T22:18:59.372Z,100941.93
2022-11-28T22:21:51.478Z,100947.00
2022-11-28T22:24:14.227Z,100946.58
2022-11-28T22:26:41.558Z,100946.42
2022-11-28T22:29:09.150Z,100945.82
2022-11-28T22:31:36.407Z,100948.30
2022-11-28T22:34:03.672Z,100946.86
2022-11-28T22:36:32.242Z,100942.09
2022-11-28T22:38:59.611Z,100944.02
2022-11-28T22:41:29.178Z,100938.65
2022-11-28T22:44:00.731Z,100943.73
2022-11-28T22:46:29.181Z,100939.86
2022-11-28T22:48:59.402Z,100943.55
2022-11-28T22:51:27.450Z,100939.05
2022-11-28T22:54:00.165Z,100937.01
2022-11-28T22:56:30.611Z,100935.21
2022-11-28T22:58:59.119Z,100939.03
2022-11-28T23:01:29.678Z,100939.10
2022-11-28T23:03:57.434Z,100931.88
2022-11-28T23:06:30.089Z,100933.16
2022-11-28T23:08:58.982Z,100932.42
2022-11-28T23:11:29.818Z,100933.13
2022-11-28T23:13:58.661Z,100936.13
2022-11-28T23:16:33.696Z,100932.72
2022-11-28T23:19:03.994Z,100930.36
2022-11-28T23:21:35.959Z,100930.96
2022-11-28T23:24:05.185Z,100933.51
2022-11-28T23:26:33.925Z,100931.47
2022-11-28T23:29:04.192Z,100934.74
2022-11-28T23:31:34.223Z,100936.77
2022-11-28T23:34:02.025Z,100933.02
2022-11-28T23:36:42.478Z,100932.29
2022-11-28T23:39:15.888Z,100928.46
2022-11-28T23:41:44.035Z,100929.98
2022-11-28T23:44:12.678Z,100932.58
2022-11-28T23:46:40.526Z,100931.48
2022-11-28T23:49:08.251Z,100930.45
2022-11-28T23:51:36.042Z,100930.52
2022-11-28T23:54:03.245Z,100930.53
2022-11-28T23:56:33.696Z,100933.21
2022-11-28T23:59:03.277Z,100929.92
